sensor_id;sensor_type;location;lat;lon;timestamp;P1;durP1;ratioP1;P2;durP2;ratioP2
39404;SDS011;25121;51.090;17.038;2023-05-02T00:02:32;14.52;;;10.38;;
39404;SDS011;25121;51.090;17.038;2023-05-02T00:03:55;13.27;;;10.13;;
39404;SDS011;25121;51.090;17.038;2023-05-02T00:05:21;13.55;;;10.50;;
39404;SDS011;25121;51.090;17.038;2023-05-02T00:06:50;14.07;;;10.48;;
39404;SDS011;25121;51.090;17.038;2023-05-02T00:08:17;14.65;;;10.10;;
39404;SDS011;25121;51.090;17.038;2023-05-02T00:09:46;15.35;;;10.73;;
39404;SDS011;25121;51.090;17.038;2023-05-02T00:11:10;15.30;;;10.77;;
39404;SDS011;25121;51.090;17.038;2023-05-02T00:12:44;13.65;;;9.90;;
39404;SDS011;25121;51.090;17.038;2023-05-02T00:14:08;11.77;;;9.43;;
39404;SDS011;25121;51.090;17.038;2023-05-02T00:15:48;13.02;;;9.57;;
39404;SDS011;25121;51.090;17.038;2023-05-02T00:17:15;11.25;;;9.02;;
39404;SDS011;25121;51.090;17.038;2023-05-02T00:18:43;11.82;;;8.90;;
39404;SDS011;25121;51.090;17.038;2023-05-02T00:20:09;15.02;;;9.98;;
39404;SDS011;25121;51.090;17.038;2023-05-02T00:21:39;11.70;;;8.73;;
39404;SDS011;25121;51.090;17.038;2023-05-02T00:23:03;10.25;;;9.05;;
39404;SDS011;25121;51.090;17.038;2023-05-02T00:24:28;14.85;;;9.30;;
39404;SDS011;25121;51.090;17.038;2023-05-02T00:26:07;15.45;;;9.55;;
39404;SDS011;25121;51.090;17.038;2023-05-02T00:27:40;9.93;;;8.77;;
39404;SDS011;25121;51.090;17.038;2023-05-02T00:29:41;11.65;;;8.70;;
39404;SDS011;25121;51.090;17.038;2023-05-02T00:31:07;12.88;;;9.70;;
39404;SDS011;25121;51.090;17.038;2023-05-02T00:32:32;11.02;;;8.68;;
39404;SDS011;25121;51.090;17.038;2023-05-02T00:33:54;11.65;;;9.55;;
39404;SDS011;25121;51.090;17.038;2023-05-02T00:35:18;11.80;;;9.20;;
39404;SDS011;25121;51.090;17.038;2023-05-02T00:36:41;11.40;;;8.32;;
39404;SDS011;25121;51.090;17.038;2023-05-02T00:38:04;12.20;;;8.95;;
39404;SDS011;25121;51.090;17.038;2023-05-02T00:39:27;11.68;;;9.35;;
39404;SDS011;25121;51.090;17.038;2023-05-02T00:40:49;16.83;;;9.48;;
39404;SDS011;25121;51.090;17.038;2023-05-02T00:42:13;11.75;;;8.55;;
39404;SDS011;25121;51.090;17.038;2023-05-02T00:43:44;11.95;;;9.57;;
39404;SDS011;25121;51.090;17.038;2023-05-02T00:45:12;14.55;;;8.10;;
39404;SDS011;25121;51.090;17.038;2023-05-02T00:46:35;13.88;;;9.50;;
39404;SDS011;25121;51.090;17.038;2023-05-02T00:48:05;16.70;;;9.23;;
39404;SDS011;25121;51.090;17.038;2023-05-02T00:49:29;12.18;;;9.18;;
39404;SDS011;25121;51.090;17.038;2023-05-02T00:50:57;10.75;;;8.73;;
39404;SDS011;25121;51.090;17.038;2023-05-02T00:52:23;12.98;;;8.75;;
39404;SDS011;25121;51.090;17.038;2023-05-02T00:53:48;13.05;;;8.52;;
39404;SDS011;25121;51.090;17.038;2023-05-02T00:55:13;15.95;;;9.48;;
39404;SDS011;25121;51.090;17.038;2023-05-02T00:56:38;17.10;;;8.65;;
39404;SDS011;25121;51.090;17.038;2023-05-02T00:58:05;10.70;;;8.93;;
39404;SDS011;25121;51.090;17.038;2023-05-02T00:59:40;11.77;;;8.60;;
39404;SDS011;25121;51.090;17.038;2023-05-02T01:01:15;11.77;;;9.07;;
39404;SDS011;25121;51.090;17.038;2023-05-02T01:02:52;12.52;;;8.75;;
39404;SDS011;25121;51.090;17.038;2023-05-02T01:04:30;11.10;;;8.95;;
39404;SDS011;25121;51.090;17.038;2023-05-02T01:06:02;12.98;;;9.10;;
39404;SDS011;25121;51.090;17.038;2023-05-02T01:09:33;15.00;;;9.38;;
39404;SDS011;25121;51.090;17.038;2023-05-02T01:11:04;13.55;;;9.15;;
39404;SDS011;25121;51.090;17.038;2023-05-02T01:12:36;14.05;;;8.85;;
39404;SDS011;25121;51.090;17.038;2023-05-02T01:14:09;13.43;;;9.18;;
39404;SDS011;25121;51.090;17.038;2023-05-02T01:15:49;14.18;;;9.00;;
39404;SDS011;25121;51.090;17.038;2023-05-02T01:17:19;14.63;;;9.98;;
39404;SDS011;25121;51.090;17.038;2023-05-02T01:18:48;12.48;;;9.48;;
39404;SDS011;25121;51.090;17.038;2023-05-02T01:20:12;12.63;;;9.25;;
39404;SDS011;25121;51.090;17.038;2023-05-02T01:21:41;14.93;;;9.13;;
39404;SDS011;25121;51.090;17.038;2023-05-02T01:23:16;14.82;;;9.80;;
39404;SDS011;25121;51.090;17.038;2023-05-02T01:24:50;12.70;;;9.60;;
39404;SDS011;25121;51.090;17.038;2023-05-02T01:26:24;12.23;;;8.82;;
39404;SDS011;25121;51.090;17.038;2023-05-02T01:28:00;13.23;;;9.65;;
39404;SDS011;25121;51.090;17.038;2023-05-02T01:29:39;13.77;;;8.85;;
39404;SDS011;25121;51.090;17.038;2023-05-02T01:31:02;13.63;;;8.93;;
39404;SDS011;25121;51.090;17.038;2023-05-02T01:32:33;11.65;;;9.27;;
39404;SDS011;25121;51.090;17.038;2023-05-02T01:34:05;18.38;;;9.23;;
39404;SDS011;25121;51.090;17.038;2023-05-02T01:35:33;10.45;;;8.93;;
39404;SDS011;25121;51.090;17.038;2023-05-02T01:36:58;11.75;;;8.38;;
39404;SDS011;25121;51.090;17.038;2023-05-02T01:38:25;12.10;;;9.00;;
39404;SDS011;25121;51.090;17.038;2023-05-02T01:39:53;12.40;;;8.73;;
39404;SDS011;25121;51.090;17.038;2023-05-02T01:41:29;14.25;;;8.45;;
39404;SDS011;25121;51.090;17.038;2023-05-02T01:42:54;11.13;;;8.38;;
39404;SDS011;25121;51.090;17.038;2023-05-02T01:44:28;14.43;;;8.77;;
39404;SDS011;25121;51.090;17.038;2023-05-02T01:46:03;12.45;;;8.75;;
39404;SDS011;25121;51.090;17.038;2023-05-02T01:47:30;12.77;;;8.93;;
39404;SDS011;25121;51.090;17.038;2023-05-02T01:49:05;13.48;;;8.38;;
39404;SDS011;25121;51.090;17.038;2023-05-02T01:50:32;9.65;;;7.63;;
39404;SDS011;25121;51.090;17.038;2023-05-02T01:52:02;12.48;;;8.90;;
39404;SDS011;25121;51.090;17.038;2023-05-02T01:53:27;10.65;;;7.88;;
39404;SDS011;25121;51.090;17.038;2023-05-02T01:54:54;12.25;;;8.98;;
39404;SDS011;25121;51.090;17.038;2023-05-02T01:56:25;12.20;;;8.68;;
39404;SDS011;25121;51.090;17.038;2023-05-02T01:57:49;12.38;;;7.95;;
39404;SDS011;25121;51.090;17.038;2023-05-02T01:59:18;10.00;;;7.38;;
39404;SDS011;25121;51.090;17.038;2023-05-02T02:00:43;12.48;;;8.02;;
39404;SDS011;25121;51.090;17.038;2023-05-02T02:02:10;14.90;;;8.98;;
39404;SDS011;25121;51.090;17.038;2023-05-02T02:03:42;8.98;;;7.68;;
39404;SDS011;25121;51.090;17.038;2023-05-02T02:05:18;11.10;;;8.85;;
39404;SDS011;25121;51.090;17.038;2023-05-02T02:06:45;9.20;;;7.20;;
39404;SDS011;25121;51.090;17.038;2023-05-02T02:08:21;10.20;;;7.72;;
39404;SDS011;25121;51.090;17.038;2023-05-02T02:09:49;14.13;;;8.07;;
39404;SDS011;25121;51.090;17.038;2023-05-02T02:11:14;12.70;;;8.15;;
39404;SDS011;25121;51.090;17.038;2023-05-02T02:12:48;16.80;;;8.95;;
39404;SDS011;25121;51.090;17.038;2023-05-02T02:14:14;16.48;;;9.25;;
39404;SDS011;25121;51.090;17.038;2023-05-02T02:15:53;9.88;;;8.02;;
39404;SDS011;25121;51.090;17.038;2023-05-02T02:17:42;9.07;;;8.18;;
39404;SDS011;25121;51.090;17.038;2023-05-02T02:19:24;10.38;;;8.52;;
39404;SDS011;25121;51.090;17.038;2023-05-02T02:21:01;11.13;;;8.63;;
39404;SDS011;25121;51.090;17.038;2023-05-02T02:24:42;11.63;;;8.43;;
39404;SDS011;25121;51.090;17.038;2023-05-02T02:58:12;13.80;;;9.25;;
39404;SDS011;25121;51.090;17.038;2023-05-02T02:59:50;11.53;;;8.00;;
39404;SDS011;25121;51.090;17.038;2023-05-02T03:01:39;11.45;;;8.93;;
39404;SDS011;25121;51.090;17.038;2023-05-02T03:03:05;12.85;;;8.50;;
39404;SDS011;25121;51.090;17.038;2023-05-02T03:04:44;13.55;;;8.60;;
39404;SDS011;25121;51.090;17.038;2023-05-02T03:06:20;11.93;;;9.02;;
39404;SDS011;25121;51.090;17.038;2023-05-02T03:08:10;13.57;;;8.95;;
39404;SDS011;25121;51.090;17.038;2023-05-02T03:09:45;12.98;;;8.50;;
39404;SDS011;25121;51.090;17.038;2023-05-02T03:11:13;14.23;;;8.77;;
39404;SDS011;25121;51.090;17.038;2023-05-02T03:12:42;12.85;;;8.63;;
39404;SDS011;25121;51.090;17.038;2023-05-02T03:14:19;19.48;;;9.20;;
39404;SDS011;25121;51.090;17.038;2023-05-02T03:17:47;11.75;;;8.18;;
39404;SDS011;25121;51.090;17.038;2023-05-02T03:19:11;12.13;;;8.13;;
39404;SDS011;25121;51.090;17.038;2023-05-02T03:20:40;11.65;;;7.78;;
39404;SDS011;25121;51.090;17.038;2023-05-02T03:22:14;8.82;;;6.40;;
39404;SDS011;25121;51.090;17.038;2023-05-02T03:23:51;10.98;;;7.10;;
39404;SDS011;25121;51.090;17.038;2023-05-02T03:25:21;9.25;;;6.38;;
39404;SDS011;25121;51.090;17.038;2023-05-02T03:26:54;9.38;;;6.78;;
39404;SDS011;25121;51.090;17.038;2023-05-02T03:28:34;7.78;;;5.82;;
39404;SDS011;25121;51.090;17.038;2023-05-02T03:30:14;9.85;;;6.47;;
39404;SDS011;25121;51.090;17.038;2023-05-02T03:31:39;10.45;;;6.10;;
39404;SDS011;25121;51.090;17.038;2023-05-02T03:33:07;11.05;;;5.57;;
39404;SDS011;25121;51.090;17.038;2023-05-02T03:34:37;9.63;;;6.30;;
39404;SDS011;25121;51.090;17.038;2023-05-02T03:36:34;9.23;;;5.60;;
39404;SDS011;25121;51.090;17.038;2023-05-02T03:38:22;8.68;;;5.90;;
39404;SDS011;25121;51.090;17.038;2023-05-02T03:39:53;12.00;;;5.22;;
39404;SDS011;25121;51.090;17.038;2023-05-02T03:41:44;7.72;;;5.35;;
39404;SDS011;25121;51.090;17.038;2023-05-02T03:43:19;8.57;;;6.15;;
39404;SDS011;25121;51.090;17.038;2023-05-02T03:44:41;9.43;;;5.65;;
39404;SDS011;25121;51.090;17.038;2023-05-02T03:46:17;8.40;;;5.35;;
39404;SDS011;25121;51.090;17.038;2023-05-02T03:48:14;12.88;;;6.15;;
39404;SDS011;25121;51.090;17.038;2023-05-02T03:49:55;11.80;;;5.50;;
39404;SDS011;25121;51.090;17.038;2023-05-02T03:51:42;11.38;;;5.90;;
39404;SDS011;25121;51.090;17.038;2023-05-02T03:53:24;8.32;;;5.50;;
39404;SDS011;25121;51.090;17.038;2023-05-02T03:54:50;11.32;;;5.68;;
39404;SDS011;25121;51.090;17.038;2023-05-02T03:56:20;8.43;;;5.68;;
39404;SDS011;25121;51.090;17.038;2023-05-02T03:57:55;8.95;;;6.30;;
39404;SDS011;25121;51.090;17.038;2023-05-02T03:59:17;13.95;;;5.53;;
39404;SDS011;25121;51.090;17.038;2023-05-02T04:00:43;7.57;;;5.82;;
39404;SDS011;25121;51.090;17.038;2023-05-02T04:02:09;8.35;;;5.43;;
39404;SDS011;25121;51.090;17.038;2023-05-02T04:03:41;8.88;;;6.07;;
39404;SDS011;25121;51.090;17.038;2023-05-02T04:05:14;11.82;;;6.38;;
39404;SDS011;25121;51.090;17.038;2023-05-02T04:06:40;9.40;;;6.18;;
39404;SDS011;25121;51.090;17.038;2023-05-02T04:08:04;9.95;;;5.88;;
39404;SDS011;25121;51.090;17.038;2023-05-02T04:09:34;10.63;;;5.93;;
39404;SDS011;25121;51.090;17.038;2023-05-02T04:11:02;9.35;;;6.50;;
39404;SDS011;25121;51.090;17.038;2023-05-02T04:12:24;11.73;;;6.25;;
39404;SDS011;25121;51.090;17.038;2023-05-02T04:13:48;11.02;;;6.43;;
39404;SDS011;25121;51.090;17.038;2023-05-02T04:15:13;8.57;;;5.90;;
39404;SDS011;25121;51.090;17.038;2023-05-02T04:16:40;12.10;;;6.00;;
39404;SDS011;25121;51.090;17.038;2023-05-02T04:18:19;12.45;;;6.75;;
39404;SDS011;25121;51.090;17.038;2023-05-02T04:19:47;10.05;;;6.75;;
39404;SDS011;25121;51.090;17.038;2023-05-02T04:21:23;13.07;;;6.35;;
39404;SDS011;25121;51.090;17.038;2023-05-02T04:23:04;10.10;;;6.43;;
39404;SDS011;25121;51.090;17.038;2023-05-02T04:24:29;11.85;;;6.22;;
39404;SDS011;25121;51.090;17.038;2023-05-02T04:26:04;9.45;;;6.50;;
39404;SDS011;25121;51.090;17.038;2023-05-02T04:27:37;12.05;;;7.88;;
39404;SDS011;25121;51.090;17.038;2023-05-02T04:29:03;12.18;;;6.40;;
39404;SDS011;25121;51.090;17.038;2023-05-02T04:31:23;11.77;;;7.07;;
39404;SDS011;25121;51.090;17.038;2023-05-02T04:33:04;9.05;;;6.75;;
39404;SDS011;25121;51.090;17.038;2023-05-02T04:34:38;13.98;;;6.55;;
39404;SDS011;25121;51.090;17.038;2023-05-02T04:36:08;10.02;;;6.28;;
39404;SDS011;25121;51.090;17.038;2023-05-02T04:37:39;8.03;;;6.40;;
39404;SDS011;25121;51.090;17.038;2023-05-02T04:39:04;10.52;;;6.15;;
39404;SDS011;25121;51.090;17.038;2023-05-02T04:42:51;8.82;;;6.10;;
39404;SDS011;25121;51.090;17.038;2023-05-02T04:44:20;8.90;;;6.40;;
39404;SDS011;25121;51.090;17.038;2023-05-02T04:45:50;13.52;;;6.43;;
39404;SDS011;25121;51.090;17.038;2023-05-02T04:47:20;10.35;;;7.45;;
39404;SDS011;25121;51.090;17.038;2023-05-02T04:48:44;11.10;;;7.15;;
39404;SDS011;25121;51.090;17.038;2023-05-02T04:50:28;11.80;;;7.85;;
39404;SDS011;25121;51.090;17.038;2023-05-02T04:51:53;9.73;;;7.22;;
39404;SDS011;25121;51.090;17.038;2023-05-02T04:53:32;12.07;;;8.20;;
39404;SDS011;25121;51.090;17.038;2023-05-02T04:59:14;12.82;;;7.43;;
39404;SDS011;25121;51.090;17.038;2023-05-02T05:00:39;12.00;;;8.63;;
39404;SDS011;25121;51.090;17.038;2023-05-02T05:02:04;11.68;;;8.48;;
39404;SDS011;25121;51.090;17.038;2023-05-02T05:03:39;13.60;;;7.95;;
39404;SDS011;25121;51.090;17.038;2023-05-02T05:05:18;11.95;;;7.63;;
39404;SDS011;25121;51.090;17.038;2023-05-02T05:08:50;12.55;;;8.13;;
39404;SDS011;25121;51.090;17.038;2023-05-02T05:10:24;10.52;;;8.63;;
39404;SDS011;25121;51.090;17.038;2023-05-02T05:11:49;11.57;;;8.82;;
39404;SDS011;25121;51.090;17.038;2023-05-02T05:13:15;14.57;;;8.45;;
39404;SDS011;25121;51.090;17.038;2023-05-02T05:14:40;11.13;;;8.00;;
39404;SDS011;25121;51.090;17.038;2023-05-02T05:16:35;10.88;;;7.88;;
39404;SDS011;25121;51.090;17.038;2023-05-02T05:18:23;10.10;;;8.30;;
39404;SDS011;25121;51.090;17.038;2023-05-02T05:20:04;12.00;;;8.90;;
39404;SDS011;25121;51.090;17.038;2023-05-02T05:21:30;11.52;;;8.43;;
39404;SDS011;25121;51.090;17.038;2023-05-02T05:22:59;9.18;;;8.07;;
39404;SDS011;25121;51.090;17.038;2023-05-02T05:24:23;10.20;;;7.95;;
39404;SDS011;25121;51.090;17.038;2023-05-02T05:25:47;14.43;;;8.88;;
39404;SDS011;25121;51.090;17.038;2023-05-02T05:27:11;12.30;;;8.10;;
39404;SDS011;25121;51.090;17.038;2023-05-02T05:28:52;14.93;;;9.00;;
39404;SDS011;25121;51.090;17.038;2023-05-02T05:30:30;11.50;;;8.18;;
39404;SDS011;25121;51.090;17.038;2023-05-02T05:31:54;13.32;;;8.13;;
39404;SDS011;25121;51.090;17.038;2023-05-02T05:33:23;18.48;;;8.50;;
39404;SDS011;25121;51.090;17.038;2023-05-02T05:34:45;14.70;;;9.02;;
39404;SDS011;25121;51.090;17.038;2023-05-02T05:36:08;11.35;;;8.70;;
39404;SDS011;25121;51.090;17.038;2023-05-02T05:37:36;12.90;;;8.88;;
39404;SDS011;25121;51.090;17.038;2023-05-02T05:39:08;15.40;;;8.73;;
39404;SDS011;25121;51.090;17.038;2023-05-02T05:40:35;14.00;;;9.05;;
39404;SDS011;25121;51.090;17.038;2023-05-02T05:42:00;15.55;;;9.15;;
39404;SDS011;25121;51.090;17.038;2023-05-02T05:43:33;16.65;;;9.30;;
39404;SDS011;25121;51.090;17.038;2023-05-02T05:44:58;14.73;;;9.73;;
39404;SDS011;25121;51.090;17.038;2023-05-02T05:46:23;11.27;;;8.90;;
39404;SDS011;25121;51.090;17.038;2023-05-02T05:47:55;11.40;;;9.32;;
39404;SDS011;25121;51.090;17.038;2023-05-02T05:49:28;14.97;;;9.20;;
39404;SDS011;25121;51.090;17.038;2023-05-02T05:51:03;14.55;;;9.00;;
39404;SDS011;25121;51.090;17.038;2023-05-02T05:52:34;10.93;;;7.60;;
39404;SDS011;25121;51.090;17.038;2023-05-02T05:53:58;13.60;;;8.68;;
39404;SDS011;25121;51.090;17.038;2023-05-02T05:55:45;12.13;;;9.02;;
39404;SDS011;25121;51.090;17.038;2023-05-02T05:57:19;14.70;;;8.95;;
39404;SDS011;25121;51.090;17.038;2023-05-02T05:59:06;11.95;;;8.80;;
39404;SDS011;25121;51.090;17.038;2023-05-02T06:00:34;14.50;;;9.10;;
39404;SDS011;25121;51.090;17.038;2023-05-02T06:04:02;13.93;;;8.38;;
39404;SDS011;25121;51.090;17.038;2023-05-02T06:05:49;11.38;;;8.00;;
39404;SDS011;25121;51.090;17.038;2023-05-02T06:07:14;9.68;;;7.95;;
39404;SDS011;25121;51.090;17.038;2023-05-02T06:10:50;10.20;;;7.72;;
39404;SDS011;25121;51.090;17.038;2023-05-02T06:12:27;12.50;;;8.20;;
39404;SDS011;25121;51.090;17.038;2023-05-02T06:14:12;12.55;;;8.65;;
39404;SDS011;25121;51.090;17.038;2023-05-02T06:16:10;11.07;;;8.70;;
39404;SDS011;25121;51.090;17.038;2023-05-02T06:17:39;10.30;;;7.80;;
39404;SDS011;25121;51.090;17.038;2023-05-02T06:19:14;10.00;;;7.97;;
39404;SDS011;25121;51.090;17.038;2023-05-02T06:20:37;9.95;;;7.15;;
39404;SDS011;25121;51.090;17.038;2023-05-02T06:22:03;11.60;;;8.30;;
39404;SDS011;25121;51.090;17.038;2023-05-02T06:23:29;12.70;;;8.25;;
39404;SDS011;25121;51.090;17.038;2023-05-02T06:24:56;13.50;;;7.85;;
39404;SDS011;25121;51.090;17.038;2023-05-02T06:26:28;12.40;;;7.35;;
39404;SDS011;25121;51.090;17.038;2023-05-02T06:27:58;9.27;;;7.43;;
39404;SDS011;25121;51.090;17.038;2023-05-02T06:29:24;13.18;;;7.40;;
39404;SDS011;25121;51.090;17.038;2023-05-02T06:30:55;12.85;;;7.13;;
39404;SDS011;25121;51.090;17.038;2023-05-02T06:32:24;9.80;;;6.88;;
39404;SDS011;25121;51.090;17.038;2023-05-02T06:33:47;11.23;;;7.80;;
39404;SDS011;25121;51.090;17.038;2023-05-02T06:35:17;8.15;;;6.38;;
39404;SDS011;25121;51.090;17.038;2023-05-02T06:36:43;11.45;;;7.00;;
39404;SDS011;25121;51.090;17.038;2023-05-02T06:38:14;8.52;;;6.95;;
39404;SDS011;25121;51.090;17.038;2023-05-02T06:39:39;9.02;;;6.60;;
39404;SDS011;25121;51.090;17.038;2023-05-02T06:41:04;12.05;;;6.88;;
39404;SDS011;25121;51.090;17.038;2023-05-02T06:42:35;11.68;;;7.50;;
39404;SDS011;25121;51.090;17.038;2023-05-02T06:43:57;16.05;;;8.05;;
39404;SDS011;25121;51.090;17.038;2023-05-02T06:45:23;10.40;;;7.43;;
39404;SDS011;25121;51.090;17.038;2023-05-02T06:46:50;12.40;;;7.60;;
39404;SDS011;25121;51.090;17.038;2023-05-02T06:48:37;10.70;;;7.28;;
39404;SDS011;25121;51.090;17.038;2023-05-02T06:50:18;9.88;;;8.52;;
39404;SDS011;25121;51.090;17.038;2023-05-02T06:51:52;13.43;;;7.53;;
39404;SDS011;25121;51.090;17.038;2023-05-02T06:53:18;14.35;;;9.05;;
39404;SDS011;25121;51.090;17.038;2023-05-02T06:55:04;11.57;;;8.95;;
39404;SDS011;25121;51.090;17.038;2023-05-02T06:58:22;10.77;;;7.93;;
39404;SDS011;25121;51.090;17.038;2023-05-02T06:59:48;14.18;;;8.48;;
39404;SDS011;25121;51.090;17.038;2023-05-02T07:01:15;12.45;;;8.40;;
39404;SDS011;25121;51.090;17.038;2023-05-02T07:02:38;11.38;;;8.38;;
39404;SDS011;25121;51.090;17.038;2023-05-02T07:04:02;12.68;;;8.50;;
39404;SDS011;25121;51.090;17.038;2023-05-02T07:08:22;12.43;;;8.32;;
39404;SDS011;25121;51.090;17.038;2023-05-02T07:19:29;9.80;;;7.47;;
39404;SDS011;25121;51.090;17.038;2023-05-02T07:21:13;9.80;;;7.78;;
39404;SDS011;25121;51.090;17.038;2023-05-02T07:24:43;11.55;;;7.57;;
39404;SDS011;25121;51.090;17.038;2023-05-02T07:26:24;8.25;;;7.10;;
39404;SDS011;25121;51.090;17.038;2023-05-02T07:28:02;12.18;;;8.00;;
39404;SDS011;25121;51.090;17.038;2023-05-02T07:29:52;17.70;;;8.50;;
39404;SDS011;25121;51.090;17.038;2023-05-02T07:33:35;11.13;;;7.65;;
39404;SDS011;25121;51.090;17.038;2023-05-02T07:35:00;11.02;;;7.63;;
39404;SDS011;25121;51.090;17.038;2023-05-02T07:36:28;11.90;;;8.30;;
39404;SDS011;25121;51.090;17.038;2023-05-02T07:37:58;13.15;;;7.72;;
39404;SDS011;25121;51.090;17.038;2023-05-02T07:41:41;13.60;;;7.88;;
39404;SDS011;25121;51.090;17.038;2023-05-02T07:43:27;12.43;;;8.43;;
39404;SDS011;25121;51.090;17.038;2023-05-02T07:45:16;14.23;;;8.45;;
39404;SDS011;25121;51.090;17.038;2023-05-02T07:52:08;12.88;;;7.93;;
39404;SDS011;25121;51.090;17.038;2023-05-02T07:53:57;16.70;;;8.38;;
39404;SDS011;25121;51.090;17.038;2023-05-02T07:55:39;9.98;;;8.23;;
39404;SDS011;25121;51.090;17.038;2023-05-02T07:57:11;12.10;;;7.82;;
39404;SDS011;25121;51.090;17.038;2023-05-02T07:59:03;9.40;;;7.03;;
39404;SDS011;25121;51.090;17.038;2023-05-02T08:00:42;10.68;;;8.32;;
39404;SDS011;25121;51.090;17.038;2023-05-02T08:06:29;11.18;;;8.73;;
39404;SDS011;25121;51.090;17.038;2023-05-02T08:11:35;10.13;;;7.75;;
39404;SDS011;25121;51.090;17.038;2023-05-02T08:13:41;11.98;;;8.23;;
39404;SDS011;25121;51.090;17.038;2023-05-02T08:21:04;11.38;;;6.97;;
39404;SDS011;25121;51.090;17.038;2023-05-02T08:22:29;10.13;;;7.88;;
39404;SDS011;25121;51.090;17.038;2023-05-02T08:23:58;10.23;;;7.88;;
39404;SDS011;25121;51.090;17.038;2023-05-02T08:25:30;12.20;;;7.63;;
39404;SDS011;25121;51.090;17.038;2023-05-02T08:27:05;11.75;;;8.10;;
39404;SDS011;25121;51.090;17.038;2023-05-02T08:28:33;8.50;;;7.55;;
39404;SDS011;25121;51.090;17.038;2023-05-02T08:29:59;16.17;;;7.68;;
39404;SDS011;25121;51.090;17.038;2023-05-02T08:31:46;9.85;;;7.20;;
39404;SDS011;25121;51.090;17.038;2023-05-02T08:33:24;10.15;;;7.00;;
39404;SDS011;25121;51.090;17.038;2023-05-02T08:34:57;10.80;;;7.90;;
39404;SDS011;25121;51.090;17.038;2023-05-02T08:36:53;10.80;;;7.75;;
39404;SDS011;25121;51.090;17.038;2023-05-02T08:38:41;13.55;;;8.30;;
39404;SDS011;25121;51.090;17.038;2023-05-02T08:58:54;13.20;;;7.70;;
39404;SDS011;25121;51.090;17.038;2023-05-02T09:00:34;14.55;;;8.00;;
39404;SDS011;25121;51.090;17.038;2023-05-02T09:02:09;9.00;;;6.60;;
39404;SDS011;25121;51.090;17.038;2023-05-02T09:03:48;11.73;;;7.40;;
39404;SDS011;25121;51.090;17.038;2023-05-02T09:05:20;10.15;;;7.38;;
39404;SDS011;25121;51.090;17.038;2023-05-02T09:07:02;12.93;;;7.95;;
39404;SDS011;25121;51.090;17.038;2023-05-02T09:08:34;11.30;;;7.43;;
39404;SDS011;25121;51.090;17.038;2023-05-02T09:12:01;14.82;;;7.90;;
39404;SDS011;25121;51.090;17.038;2023-05-02T09:13:33;11.90;;;7.60;;
39404;SDS011;25121;51.090;17.038;2023-05-02T09:16:28;12.57;;;8.38;;
39404;SDS011;25121;51.090;17.038;2023-05-02T09:17:54;12.02;;;8.32;;
39404;SDS011;25121;51.090;17.038;2023-05-02T09:20:00;10.98;;;9.07;;
39404;SDS011;25121;51.090;17.038;2023-05-02T09:21:36;12.30;;;7.82;;
39404;SDS011;25121;51.090;17.038;2023-05-02T09:23:03;13.43;;;8.13;;
39404;SDS011;25121;51.090;17.038;2023-05-02T09:24:53;9.52;;;7.45;;
39404;SDS011;25121;51.090;17.038;2023-05-02T09:26:58;13.43;;;8.65;;
39404;SDS011;25121;51.090;17.038;2023-05-02T09:28:51;15.13;;;8.80;;
39404;SDS011;25121;51.090;17.038;2023-05-02T09:31:05;12.77;;;8.82;;
39404;SDS011;25121;51.090;17.038;2023-05-02T09:32:54;13.80;;;8.57;;
39404;SDS011;25121;51.090;17.038;2023-05-02T09:34:27;13.75;;;8.38;;
39404;SDS011;25121;51.090;17.038;2023-05-02T09:35:57;13.90;;;8.35;;
39404;SDS011;25121;51.090;17.038;2023-05-02T09:39:18;11.45;;;8.10;;
39404;SDS011;25121;51.090;17.038;2023-05-02T09:41:40;14.25;;;9.23;;
39404;SDS011;25121;51.090;17.038;2023-05-02T09:43:24;11.27;;;8.30;;
39404;SDS011;25121;51.090;17.038;2023-05-02T09:46:25;13.80;;;8.80;;
39404;SDS011;25121;51.090;17.038;2023-05-02T09:48:04;14.10;;;9.25;;
39404;SDS011;25121;51.090;17.038;2023-05-02T09:49:41;14.73;;;8.70;;
39404;SDS011;25121;51.090;17.038;2023-05-02T09:51:18;12.70;;;8.88;;
39404;SDS011;25121;51.090;17.038;2023-05-02T09:57:55;9.90;;;8.45;;
39404;SDS011;25121;51.090;17.038;2023-05-02T10:05:04;13.80;;;8.70;;
39404;SDS011;25121;51.090;17.038;2023-05-02T10:08:37;13.90;;;8.07;;
39404;SDS011;25121;51.090;17.038;2023-05-02T10:10:35;11.30;;;8.40;;
39404;SDS011;25121;51.090;17.038;2023-05-02T10:16:31;10.32;;;7.35;;
39404;SDS011;25121;51.090;17.038;2023-05-02T10:17:57;11.80;;;7.88;;
39404;SDS011;25121;51.090;17.038;2023-05-02T10:22:07;11.68;;;7.78;;
39404;SDS011;25121;51.090;17.038;2023-05-02T10:23:49;10.23;;;7.05;;
39404;SDS011;25121;51.090;17.038;2023-05-02T10:25:43;9.75;;;6.47;;
39404;SDS011;25121;51.090;17.038;2023-05-02T10:28:08;13.52;;;7.78;;
39404;SDS011;25121;51.090;17.038;2023-05-02T10:32:33;11.73;;;7.40;;
39404;SDS011;25121;51.090;17.038;2023-05-02T10:34:16;10.00;;;6.78;;
39404;SDS011;25121;51.090;17.038;2023-05-02T10:35:57;12.15;;;6.95;;
39404;SDS011;25121;51.090;17.038;2023-05-02T10:37:49;8.52;;;6.30;;
39404;SDS011;25121;51.090;17.038;2023-05-02T10:39:37;10.00;;;6.47;;
39404;SDS011;25121;51.090;17.038;2023-05-02T10:41:32;10.15;;;6.57;;
39404;SDS011;25121;51.090;17.038;2023-05-02T10:45:53;9.40;;;6.18;;
39404;SDS011;25121;51.090;17.038;2023-05-02T10:46:12;10.85;;;7.10;;
39404;SDS011;25121;51.090;17.038;2023-05-02T10:51:31;11.27;;;7.43;;
39404;SDS011;25121;51.090;17.038;2023-05-02T10:53:38;12.10;;;7.55;;
39404;SDS011;25121;51.090;17.038;2023-05-02T10:55:17;15.95;;;8.15;;
39404;SDS011;25121;51.090;17.038;2023-05-02T10:58:51;13.73;;;7.90;;
39404;SDS011;25121;51.090;17.038;2023-05-02T11:00:27;12.10;;;7.53;;
39404;SDS011;25121;51.090;17.038;2023-05-02T11:02:50;9.70;;;7.70;;
39404;SDS011;25121;51.090;17.038;2023-05-02T11:04:26;12.75;;;7.43;;
39404;SDS011;25121;51.090;17.038;2023-05-02T11:06:34;12.82;;;7.15;;
39404;SDS011;25121;51.090;17.038;2023-05-02T11:08:36;13.90;;;7.90;;
39404;SDS011;25121;51.090;17.038;2023-05-02T11:22:29;10.30;;;6.20;;
39404;SDS011;25121;51.090;17.038;2023-05-02T11:26:23;13.25;;;6.32;;
39404;SDS011;25121;51.090;17.038;2023-05-02T11:28:00;12.63;;;7.78;;
39404;SDS011;25121;51.090;17.038;2023-05-02T11:29:53;9.13;;;6.30;;
39404;SDS011;25121;51.090;17.038;2023-05-02T11:33:38;12.68;;;6.20;;
39404;SDS011;25121;51.090;17.038;2023-05-02T11:35:25;10.82;;;6.57;;
39404;SDS011;25121;51.090;17.038;2023-05-02T11:40:14;11.85;;;6.63;;
39404;SDS011;25121;51.090;17.038;2023-05-02T11:41:42;17.40;;;6.70;;
39404;SDS011;25121;51.090;17.038;2023-05-02T11:43:16;12.82;;;7.07;;
39404;SDS011;25121;51.090;17.038;2023-05-02T11:44:55;9.60;;;6.90;;
39404;SDS011;25121;51.090;17.038;2023-05-02T11:46:29;10.73;;;6.93;;
39404;SDS011;25121;51.090;17.038;2023-05-02T11:48:18;10.77;;;7.03;;
39404;SDS011;25121;51.090;17.038;2023-05-02T11:49:56;10.73;;;6.68;;
39404;SDS011;25121;51.090;17.038;2023-05-02T11:54:35;9.60;;;6.60;;
39404;SDS011;25121;51.090;17.038;2023-05-02T11:56:53;10.73;;;6.40;;
39404;SDS011;25121;51.090;17.038;2023-05-02T11:58:48;10.50;;;6.00;;
39404;SDS011;25121;51.090;17.038;2023-05-02T12:00:39;10.68;;;6.75;;
39404;SDS011;25121;51.090;17.038;2023-05-02T12:02:35;10.43;;;7.13;;
39404;SDS011;25121;51.090;17.038;2023-05-02T12:04:03;8.57;;;6.25;;